createdAt,value
2018-09-08T00:00:40.389Z,1015.37
2018-09-08T00:01:49.966Z,1015.32
2018-09-08T00:02:59.803Z,1015.34
2018-09-08T00:04:09.367Z,1015.4
2018-09-08T00:05:19.207Z,1015.38
2018-09-08T00:06:29.097Z,1015.44
2018-09-08T00:07:38.947Z,1015.42
2018-09-08T00:08:48.783Z,1015.44
2018-09-08T00:09:58.352Z,1015.42
2018-09-08T00:11:08.192Z,1015.41
2018-09-08T00:12:18.031Z,1015.51
2018-09-08T00:13:27.602Z,1015.6
2018-09-08T00:14:37.720Z,1015.53
2018-09-08T00:15:47.293Z,1015.6
2018-09-08T00:16:57.132Z,1015.55
2018-09-08T00:18:07.243Z,1015.6
2018-09-08T00:19:17.088Z,1015.58
2018-09-08T00:20:26.381Z,1015.58
2018-09-08T00:21:35.685Z,1015.57
2018-09-08T00:22:45.750Z,1015.51
2018-09-08T00:23:55.371Z,1015.51
2018-09-08T00:25:04.938Z,1015.49
2018-09-08T00:26:14.511Z,1015.47
2018-09-08T00:27:24.629Z,1015.54
2018-09-08T00:28:34.464Z,1015.54
2018-09-08T00:29:44.621Z,1015.55
2018-09-08T00:30:54.461Z,1015.58
2018-09-08T00:32:03.763Z,1015.55
2018-09-08T00:33:13.649Z,1015.54
2018-09-08T00:34:23.214Z,1015.53
2018-09-08T00:35:32.519Z,1015.53
2018-09-08T00:36:42.632Z,1015.53
2018-09-08T00:37:52.205Z,1015.46
2018-09-08T00:39:01.769Z,1015.62
2018-09-08T00:40:11.070Z,1015.56
2018-09-08T00:41:20.708Z,1015.54
2018-09-08T00:42:30.300Z,1015.59
2018-09-08T00:43:39.871Z,1015.58
2018-09-08T00:44:49.442Z,1015.63
2018-09-08T00:45:58.855Z,1015.62
2018-09-08T00:47:08.765Z,1015.68
2018-09-08T00:48:18.329Z,1015.58
2018-09-08T00:49:28.194Z,1015.6
2018-09-08T00:50:37.224Z,1015.67
2018-09-08T00:51:47.102Z,1015.59
2018-09-08T00:52:56.682Z,1015.66
2018-09-08T00:54:06.804Z,1015.63
2018-09-08T00:55:16.373Z,1015.65
2018-09-08T00:56:26.209Z,1015.74
2018-09-08T00:57:36.045Z,1015.69
2018-09-08T00:58:45.611Z,1015.73
2018-09-08T00:59:55.176Z,1015.74
2018-09-08T01:01:03.941Z,1015.72
2018-09-08T01:02:13.771Z,1015.8
2018-09-08T01:03:23.611Z,1015.75
2018-09-08T01:04:32.920Z,1015.78
2018-09-08T01:05:42.800Z,1015.8
2018-09-08T01:06:52.104Z,1015.75
2018-09-08T01:08:01.945Z,1015.83
2018-09-08T01:09:11.252Z,1015.85
2018-09-08T01:10:21.383Z,1015.75
2018-09-08T01:11:31.503Z,1015.74
2018-09-08T01:12:41.345Z,1015.69
2018-09-08T01:13:51.449Z,1015.73
2018-09-08T01:15:01.293Z,1015.7
2018-09-08T01:16:10.590Z,1015.74
2018-09-08T01:17:19.887Z,1015.75
2018-09-08T01:18:29.722Z,1015.74
2018-09-08T01:19:39.611Z,1015.78
2018-09-08T01:20:49.723Z,1015.74
2018-09-08T01:21:59.564Z,1015.72
2018-09-08T01:23:09.129Z,1015.76
2018-09-08T01:24:19.274Z,1015.74
2018-09-08T01:25:29.111Z,1015.74
2018-09-08T01:26:38.683Z,1015.77
2018-09-08T01:27:48.526Z,1015.72
2018-09-08T01:28:58.364Z,1015.76
2018-09-08T01:30:08.209Z,1015.78
2018-09-08T01:31:18.312Z,1015.77
2018-09-08T01:32:27.888Z,1015.75
2018-09-08T01:33:37.455Z,1015.79
2018-09-08T01:34:47.290Z,1015.77
2018-09-08T01:35:57.128Z,1015.76
2018-09-08T01:37:06.695Z,1015.76
2018-09-08T01:38:16.529Z,1015.71
2018-09-08T01:39:26.645Z,1015.76
2018-09-08T01:40:36.507Z,1015.79
2018-09-08T01:41:46.341Z,1015.79
2018-09-08T01:42:56.221Z,1015.73
2018-09-08T01:44:05.254Z,1015.75
2018-09-08T01:45:15.299Z,1015.8
2018-09-08T01:46:24.600Z,1015.78
2018-09-08T01:47:34.488Z,1015.82
2018-09-08T01:48:43.788Z,1015.82
2018-09-08T01:49:53.368Z,1015.88
2018-09-08T01:51:03.040Z,1015.86
2018-09-08T01:52:12.617Z,1015.85
2018-09-08T01:53:22.455Z,1015.93
2018-09-08T01:54:32.797Z,1015.87
2018-09-08T01:55:42.638Z,1015.87
2018-09-08T01:56:52.472Z,1015.84
2018-09-08T01:58:02.308Z,1015.88
2018-09-08T01:59:11.876Z,1015.83
2018-09-08T02:00:21.447Z,1015.8
2018-09-08T02:01:31.554Z,1015.84
2018-09-08T02:02:40.849Z,1015.85
2018-09-08T02:03:50.453Z,1015.86
2018-09-08T02:05:00.056Z,1015.89
2018-09-08T02:06:09.628Z,1015.9
2018-09-08T02:07:19.473Z,1015.9
2018-09-08T02:08:28.764Z,1015.88
2018-09-08T02:09:38.333Z,1015.89
2018-09-08T02:10:48.177Z,1015.91
2018-09-08T02:11:58.043Z,1015.92
2018-09-08T02:13:07.879Z,1015.93
2018-09-08T02:14:17.442Z,1015.95
2018-09-08T02:15:26.742Z,1015.98
2018-09-08T02:16:36.577Z,1015.95
2018-09-08T02:17:46.155Z,1015.99
2018-09-08T02:18:55.731Z,1015.94
2018-09-08T02:20:05.624Z,1015.94
2018-09-08T02:21:14.922Z,1015.98
2018-09-08T02:22:25.068Z,1015.97
2018-09-08T02:23:34.644Z,1015.99
2018-09-08T02:24:44.210Z,1016.01
2018-09-08T02:25:54.062Z,1015.98
2018-09-08T02:27:04.180Z,1015.96
2018-09-08T02:28:14.014Z,1016.01
2018-09-08T02:29:23.855Z,1016.03
2018-09-08T02:30:33.161Z,1016.01
2018-09-08T02:31:42.735Z,1015.99
2018-09-08T02:32:52.319Z,1015.96
2018-09-08T02:34:02.170Z,1015.97
2018-09-08T02:35:11.735Z,1016
2018-09-08T02:36:21.840Z,1015.97
2018-09-08T02:37:31.144Z,1016.03
2018-09-08T02:38:41.253Z,1015.98
2018-09-08T02:39:50.830Z,1016.01
2018-09-08T02:41:00.693Z,1015.96
2018-09-08T02:42:10.150Z,1016.02
2018-09-08T02:43:19.770Z,1016.01
2018-09-08T02:44:29.346Z,1016.04
2018-09-08T02:45:39.187Z,1015.99
2018-09-08T02:46:48.766Z,1015.99
2018-09-08T02:47:57.794Z,1016.01
2018-09-08T02:49:07.637Z,1015.99
2018-09-08T02:50:17.261Z,1016.07
2018-09-08T02:51:27.162Z,1016.02
2018-09-08T02:52:37.008Z,1016.03
2018-09-08T02:53:46.325Z,1015.98
2018-09-08T02:54:56.160Z,1016.02
2018-09-08T02:56:06.000Z,1016.01
2018-09-08T02:57:15.566Z,1016.07
2018-09-08T02:58:25.406Z,1016.1
2018-09-08T02:59:35.283Z,1016.11
2018-09-08T03:00:44.855Z,1016.07
2018-09-08T03:01:54.973Z,1016.02
2018-09-08T03:03:04.544Z,1016.06
2018-09-08T03:04:14.384Z,1016.08
2018-09-08T03:05:24.227Z,1016.07
2018-09-08T03:06:34.154Z,1016.1
2018-09-08T03:07:43.718Z,1015.98
2018-09-08T03:08:53.033Z,1016.04
2018-09-08T03:10:02.870Z,1016.08
2018-09-08T03:11:12.179Z,1016.05
2018-09-08T03:12:21.537Z,1016.05
2018-09-08T03:13:31.384Z,1016.02
2018-09-08T03:14:40.962Z,1016.04
2018-09-08T03:15:49.986Z,1015.98
2018-09-08T03:16:59.561Z,1015.98
2018-09-08T03:18:09.125Z,1016.01
2018-09-08T03:19:18.431Z,1016.07
2018-09-08T03:20:28.535Z,1016.04
2018-09-08T03:21:38.102Z,1016.01
2018-09-08T03:22:47.402Z,1016.03
2018-09-08T03:23:57.249Z,1016.02
2018-09-08T03:25:07.106Z,1016.07
2018-09-08T03:26:16.998Z,1016.06
2018-09-08T03:27:26.566Z,1016.1
2018-09-08T03:28:36.402Z,1016.08
2018-09-08T03:29:46.339Z,1016.12
2018-09-08T03:30:56.174Z,1016.12
2018-09-08T03:32:06.032Z,1016.11
2018-09-08T03:33:16.142Z,1016.09
2018-09-08T03:34:25.712Z,1016.14
2018-09-08T03:35:35.015Z,1016.14
2018-09-08T03:36:45.118Z,1016.17
2018-09-08T03:37:55.230Z,1016.17
2018-09-08T03:39:04.795Z,1016.14
2018-09-08T03:40:14.643Z,1016.24
2018-09-08T03:41:24.478Z,1016.19
2018-09-08T03:42:34.318Z,1016.22
2018-09-08T03:43:44.156Z,1016.22
2018-09-08T03:44:53.721Z,1016.22
2018-09-08T03:46:03.016Z,1016.24
2018-09-08T03:47:12.636Z,1016.21
2018-09-08T03:48:21.929Z,1016.2
2018-09-08T03:49:31.767Z,1016.26
2018-09-08T03:50:41.612Z,1016.27
2018-09-08T03:51:51.727Z,1016.26
2018-09-08T03:53:01.600Z,1016.25
2018-09-08T03:54:11.432Z,1016.26
2018-09-08T03:55:21.265Z,1016.34
2018-09-08T03:56:31.374Z,1016.31
2018-09-08T03:57:41.216Z,1016.33
2018-09-08T03:58:50.856Z,1016.35
2018-09-08T04:00:00.582Z,1016.31
2018-09-08T04:01:10.425Z,1016.35
2018-09-08T04:02:19.993Z,1016.35
2018-09-08T04:03:30.104Z,1016.34
2018-09-08T04:04:39.676Z,1016.39
2018-09-08T04:05:49.786Z,1016.37
2018-09-08T04:06:59.356Z,1016.39
2018-09-08T04:08:08.939Z,1016.41
2018-09-08T04:09:19.058Z,1016.45
2018-09-08T04:10:28.624Z,1016.43
2018-09-08T04:11:38.731Z,1016.4
2018-09-08T04:12:48.302Z,1016.47
2018-09-08T04:13:58.232Z,1016.47
2018-09-08T04:15:07.548Z,1016.5
2018-09-08T04:16:17.439Z,1016.49
2018-09-08T04:17:27.278Z,1016.5
2018-09-08T04:18:37.174Z,1016.48
2018-09-08T04:19:46.501Z,1016.51
2018-09-08T04:20:56.070Z,1016.5
2018-09-08T04:22:06.185Z,1016.52
2018-09-08T04:23:16.023Z,1016.52
2018-09-08T04:24:26.132Z,1016.56
2018-09-08T04:25:35.692Z,1016.57
2018-09-08T04:26:45.259Z,1016.54
2018-09-08T04:27:54.829Z,1016.54
2018-09-08T04:29:04.940Z,1016.52
2018-09-08T04:30:14.805Z,1016.53
2018-09-08T04:31:24.401Z,1016.57
2018-09-08T04:32:34.505Z,1016.62
2018-09-08T04:33:44.372Z,1016.55
2018-09-08T04:34:54.255Z,1016.59
2018-09-08T04:36:04.103Z,1016.59
2018-09-08T04:37:14.216Z,1016.6
2018-09-08T04:38:24.053Z,1016.58
2018-09-08T04:39:33.893Z,1016.63
2018-09-08T04:40:43.734Z,1016.68
2018-09-08T04:41:53.718Z,1016.71
2018-09-08T04:43:03.566Z,1016.73
2018-09-08T04:44:13.406Z,1016.74
2018-09-08T04:45:22.749Z,1016.8
2018-09-08T04:46:32.594Z,1016.75
2018-09-08T04:47:42.451Z,1016.78
2018-09-08T04:48:51.756Z,1016.81
2018-09-08T04:50:01.643Z,1016.84
2018-09-08T04:51:10.985Z,1016.84
2018-09-08T04:52:20.825Z,1016.9
2018-09-08T04:53:30.671Z,1016.9
2018-09-08T04:54:39.967Z,1016.86
2018-09-08T04:55:49.544Z,1016.86
2018-09-08T04:56:59.391Z,1016.9
2018-09-08T04:58:09.233Z,1016.9
2018-09-08T04:59:19.069Z,1016.88
2018-09-08T05:00:28.370Z,1016.87
2018-09-08T05:01:37.405Z,1016.85
2018-09-08T05:02:47.302Z,1016.86
2018-09-08T05:03:57.148Z,1016.88
2018-09-08T05:05:06.448Z,1016.86
2018-09-08T05:06:16.292Z,1016.84
2018-09-08T05:07:26.135Z,1016.87
2018-09-08T05:08:35.433Z,1016.86
2018-09-08T05:09:45.268Z,1016.88
2018-09-08T05:10:55.376Z,1016.82
2018-09-08T05:12:04.986Z,1016.84
2018-09-08T05:13:15.090Z,1016.87
2018-09-08T05:14:24.932Z,1016.91
2018-09-08T05:15:34.256Z,1016.91
2018-09-08T05:16:44.113Z,1016.9
2018-09-08T05:17:53.956Z,1016.93
2018-09-08T05:19:03.535Z,1016.9
2018-09-08T05:20:12.563Z,1016.91
2018-09-08T05:21:22.436Z,1016.99
2018-09-08T05:22:31.749Z,1016.93
2018-09-08T05:23:41.593Z,1016.94
2018-09-08T05:24:51.162Z,1016.91
2018-09-08T05:26:01.005Z,1016.95
2018-09-08T05:27:10.575Z,1016.95
2018-09-08T05:28:20.146Z,1016.94
2018-09-08T05:29:30.047Z,1016.93
2018-09-08T05:30:39.887Z,1017.04
2018-09-08T05:31:49.991Z,1017.02
2018-09-08T05:33:00.105Z,1017.03
2018-09-08T05:34:09.949Z,1016.99
2018-09-08T05:35:19.265Z,1017.05
2018-09-08T05:36:29.384Z,1017.03
2018-09-08T05:37:38.679Z,1017.06
2018-09-08T05:38:47.980Z,1017.07
2018-09-08T05:39:57.544Z,1017.04
2018-09-08T05:41:07.117Z,1017.09
2018-09-08T05:42:16.982Z,1017.12
2018-09-08T05:43:26.605Z,1017.09
2018-09-08T05:44:35.903Z,1017.12
2018-09-08T05:45:45.739Z,1017.14
2018-09-08T05:46:55.042Z,1017.09
2018-09-08T05:48:04.884Z,1017.14
2018-09-08T05:49:14.185Z,1017.18
2018-09-08T05:50:23.482Z,1017.18
2018-09-08T05:51:33.344Z,1017.17
2018-09-08T05:52:43.220Z,1017.16
2018-09-08T05:53:52.791Z,1017.09
2018-09-08T05:55:02.681Z,1017.24
2018-09-08T05:56:12.796Z,1017.2
2018-09-08T05:57:22.641Z,1017.18
2018-09-08T05:58:32.561Z,1017.21
2018-09-08T05:59:42.460Z,1017.16
2018-09-08T06:00:52.298Z,1017.21
2018-09-08T06:02:02.483Z,1017.27
2018-09-08T06:03:12.323Z,1017.19
2018-09-08T06:04:22.433Z,1017.25
2018-09-08T06:05:31.740Z,1017.25
2018-09-08T06:06:41.581Z,1017.3
2018-09-08T06:07:51.157Z,1017.3
2018-09-08T06:09:00.725Z,1017.26
2018-09-08T06:10:10.302Z,1017.3
2018-09-08T06:11:20.894Z,1017.34
2018-09-08T06:12:30.193Z,1017.37
2018-09-08T06:13:39.787Z,1017.33
2018-09-08T06:14:49.894Z,1017.34
2018-09-08T06:16:00.005Z,1017.38
2018-09-08T06:17:09.840Z,1017.35
2018-09-08T06:18:18.939Z,1017.33
2018-09-08T06:19:29.361Z,1017.32
2018-09-08T06:20:39.671Z,1017.39
2018-09-08T06:21:49.511Z,1017.32
2018-09-08T06:22:59.628Z,1017.34
2018-09-08T06:24:09.521Z,1017.41
2018-09-08T06:25:19.139Z,1017.41
2018-09-08T06:26:29.133Z,1017.39
2018-09-08T06:27:38.704Z,1017.46
2018-09-08T06:28:48.549Z,1017.44
2018-09-08T06:29:58.123Z,1017.5
2018-09-08T06:31:07.975Z,1017.5
2018-09-08T06:32:17.820Z,1017.4
2018-09-08T06:33:27.999Z,1017.46
2018-09-08T06:34:38.212Z,1017.48
2018-09-08T06:35:48.046Z,1017.48
2018-09-08T06:36:57.628Z,1017.52
2018-09-08T06:38:06.934Z,1017.55
2018-09-08T06:39:16.264Z,1017.51
2018-09-08T06:40:25.837Z,1017.5
2018-09-08T06:41:35.405Z,1017.52
2018-09-08T06:42:45.528Z,1017.52
2018-09-08T06:43:54.855Z,1017.56
2018-09-08T06:45:04.848Z,1017.5
2018-09-08T06:46:15.632Z,1017.56
2018-09-08T06:47:25.204Z,1017.57
2018-09-08T06:48:34.772Z,1017.58
2018-09-08T06:49:44.609Z,1017.58
2018-09-08T06:50:54.456Z,1017.59
2018-09-08T06:52:04.358Z,1017.66
2018-09-08T06:53:13.997Z,1017.62
2018-09-08T06:54:23.840Z,1017.63
2018-09-08T06:55:33.678Z,1017.65
2018-09-08T06:56:42.977Z,1017.71
2018-09-08T06:57:52.867Z,1017.7
2018-09-08T06:59:02.854Z,1017.72
2018-09-08T07:00:12.697Z,1017.75
2018-09-08T07:01:22.535Z,1017.75
2018-09-08T07:02:32.647Z,1017.74
2018-09-08T07:03:42.221Z,1017.77
2018-09-08T07:04:52.067Z,1017.75
2018-09-08T07:06:01.368Z,1017.74
2018-09-08T07:07:11.221Z,1017.78
2018-09-08T07:08:20.805Z,1017.79
2018-09-08T07:09:30.652Z,1017.75
2018-09-08T07:10:40.219Z,1017.81
2018-09-08T07:11:50.058Z,1017.84
2018-09-08T07:12:59.627Z,1017.83
2018-09-08T07:14:09.741Z,1017.8
2018-09-08T07:15:19.691Z,1017.83
2018-09-08T07:16:29.924Z,1017.86
2018-09-08T07:17:39.763Z,1017.88
2018-09-08T07:18:49.610Z,1017.86
2018-09-08T07:19:59.456Z,1017.84
2018-09-08T07:21:09.296Z,1017.84
2018-09-08T07:22:18.597Z,1017.87
2018-09-08T07:23:28.168Z,1017.91
2018-09-08T07:24:38.008Z,1017.91
2018-09-08T07:25:47.974Z,1017.92
2018-09-08T07:26:57.814Z,1017.96
2018-09-08T07:28:07.655Z,1017.9
2018-09-08T07:29:17.498Z,1017.95
2018-09-08T07:30:26.803Z,1017.95
2018-09-08T07:31:36.099Z,1017.98
2018-09-08T07:32:45.399Z,1018.02
2018-09-08T07:33:55.274Z,1017.95
2018-09-08T07:35:05.117Z,1017.99
2018-09-08T07:36:14.964Z,1017.97
2018-09-08T07:37:25.092Z,1018.03
2018-09-08T07:38:35.267Z,1017.96
2018-09-08T07:39:45.111Z,1018.01
2018-09-08T07:40:54.405Z,1018
2018-09-08T07:42:03.706Z,1018.07
2018-09-08T07:43:13.825Z,1018.07
2018-09-08T07:44:23.717Z,1018.08
2018-09-08T07:45:33.824Z,1018.08
2018-09-08T07:46:43.935Z,1018.12
2018-09-08T07:47:53.508Z,1018.14
2018-09-08T07:49:03.638Z,1018.14
2018-09-08T07:50:13.214Z,1018.17
2018-09-08T07:51:22.794Z,1018.17
2018-09-08T07:52:32.656Z,1018.19
2018-09-08T07:53:42.347Z,1018.24
2018-09-08T07:54:52.993Z,1018.17
2018-09-08T07:56:02.307Z,1018.23
2018-09-08T07:57:12.203Z,1018.22
2018-09-08T07:58:21.788Z,1018.23
2018-09-08T07:59:31.088Z,1018.21
2018-09-08T08:00:40.656Z,1018.25
2018-09-08T08:01:50.233Z,1018.29
2018-09-08T08:02:59.598Z,1018.26
2018-09-08T08:04:09.765Z,1018.27
2018-09-08T08:05:19.614Z,1018.32
2018-09-08T08:06:29.477Z,1018.35
2018-09-08T08:07:39.178Z,1018.33
2018-09-08T08:08:49.082Z,1018.28
2018-09-08T08:09:58.656Z,1018.29
2018-09-08T08:11:08.225Z,1018.32
2018-09-08T08:12:18.072Z,1018.34
2018-09-08T08:13:27.910Z,1018.34
2018-09-08T08:14:37.343Z,1018.32
2018-09-08T08:15:47.261Z,1018.31
2018-09-08T08:16:57.138Z,1018.38
2018-09-08T08:18:06.714Z,1018.39
2018-09-08T08:19:16.864Z,1018.35
2018-09-08T08:20:26.187Z,1018.41
2018-09-08T08:21:35.223Z,1018.35
2018-09-08T08:22:44.794Z,1018.37
2018-09-08T08:23:53.553Z,1018.33
2018-09-08T08:25:02.861Z,1018.4
2018-09-08T08:26:12.493Z,1018.38
2018-09-08T08:27:22.059Z,1018.33
2018-09-08T08:28:32.198Z,1018.37
2018-09-08T08:29:41.774Z,1018.34
2018-09-08T08:30:51.077Z,1018.36
2018-09-08T08:32:00.662Z,1018.37
2018-09-08T08:33:10.769Z,1018.32
2018-09-08T08:34:20.608Z,1018.41
2018-09-08T08:35:30.186Z,1018.42
2018-09-08T08:36:39.489Z,1018.4
2018-09-08T08:37:49.376Z,1018.39
2018-09-08T08:38:58.950Z,1018.37
2018-09-08T08:40:09.059Z,1018.46
2018-09-08T08:41:18.631Z,1018.45
2018-09-08T08:42:28.469Z,1018.45
2018-09-08T08:43:38.316Z,1018.5
2018-09-08T08:44:47.896Z,1018.48
2018-09-08T08:45:57.475Z,1018.46
2018-09-08T08:47:07.047Z,1018.48
2018-09-08T08:48:16.890Z,1018.48
2018-09-08T08:49:26.736Z,1018.45
2018-09-08T08:50:36.595Z,1018.49
2018-09-08T08:51:46.435Z,1018.52
2018-09-08T08:52:55.741Z,1018.57
2018-09-08T08:54:05.582Z,1018.54
2018-09-08T08:55:15.436Z,1018.61
2018-09-08T08:56:25.291Z,1018.61
2018-09-08T08:57:35.133Z,1018.55
2018-09-08T08:58:44.989Z,1018.69
2018-09-08T08:59:54.301Z,1018.61
2018-09-08T09:01:04.151Z,1018.57
2018-09-08T09:02:14.264Z,1018.6
2018-09-08T09:03:24.045Z,1018.59
2018-09-08T09:04:33.890Z,1018.6
2018-09-08T09:05:44.005Z,1018.58
2018-09-08T09:06:54.048Z,1018.62
2018-09-08T09:08:05.238Z,1018.61
2018-09-08T09:09:14.756Z,1018.6
2018-09-08T09:10:24.333Z,1018.63
2018-09-08T09:11:34.174Z,1018.58
2018-09-08T09:12:43.649Z,1018.64
2018-09-08T09:13:53.782Z,1018.64
2018-09-08T09:15:04.272Z,1018.64
2018-09-08T09:16:17.026Z,1018.63
2018-09-08T09:17:26.868Z,1018.63
2018-09-08T09:18:36.940Z,1018.73
2018-09-08T09:19:47.950Z,1018.73
2018-09-08T09:20:57.257Z,1018.74
2018-09-08T09:22:06.291Z,1018.68
2018-09-08T09:23:16.411Z,1018.72
2018-09-08T09:24:27.208Z,1018.77
2018-09-08T09:25:39.433Z,1018.76
2018-09-08T09:26:49.551Z,1018.8
2018-09-08T09:27:59.671Z,1018.79
2018-09-08T09:29:09.524Z,1018.77
2018-09-08T09:30:19.372Z,1018.77
2018-09-08T09:31:29.230Z,1018.79
2018-09-08T09:32:38.536Z,1018.75
2018-09-08T09:33:48.377Z,1018.77
2018-09-08T09:34:58.514Z,1018.81
2018-09-08T09:36:08.152Z,1018.85
2018-09-08T09:37:18.271Z,1018.82
2018-09-08T09:38:28.119Z,1018.86
2018-09-08T09:39:37.981Z,1018.82
2018-09-08T09:40:47.560Z,1018.83
2018-09-08T09:41:57.137Z,1018.91
2018-09-08T09:43:07.259Z,1018.88
2018-09-08T09:44:16.908Z,1018.92
2018-09-08T09:45:26.677Z,1018.94
2018-09-08T09:46:36.789Z,1018.89
2018-09-08T09:47:46.680Z,1018.88
2018-09-08T09:48:56.266Z,1018.91
2018-09-08T09:50:05.845Z,1018.88
2018-09-08T09:51:15.960Z,1018.97
2018-09-08T09:52:25.270Z,1018.88
2018-09-08T09:53:35.166Z,1018.95
2018-09-08T09:54:45.296Z,1018.92
2018-09-08T09:55:54.332Z,1018.94
2018-09-08T09:57:04.260Z,1018.96
2018-09-08T09:58:13.565Z,1018.92
2018-09-08T09:59:23.716Z,1018.91
2018-09-08T10:00:33.555Z,1018.9
2018-09-08T10:01:43.601Z,1018.88
2018-09-08T10:02:52.643Z,1018.93
2018-09-08T10:04:02.214Z,1019.01
2018-09-08T10:05:11.246Z,1018.96
2018-09-08T10:06:21.091Z,1018.95
2018-09-08T10:07:31.281Z,1018.91
2018-09-08T10:08:40.589Z,1018.98
2018-09-08T10:09:50.699Z,1018.94
2018-09-08T10:11:00.810Z,1018.92
2018-09-08T10:12:09.875Z,1018.91
2018-09-08T10:13:19.644Z,1019
2018-09-08T10:14:29.482Z,1018.98
2018-09-08T10:15:39.365Z,1018.95
2018-09-08T10:16:48.945Z,1018.94
2018-09-08T10:17:58.812Z,1018.91
2018-09-08T10:19:08.945Z,1018.99
2018-09-08T10:20:18.790Z,1018.9
2018-09-08T10:21:28.400Z,1018.99
2018-09-08T10:22:38.251Z,1018.97
2018-09-08T10:24:04.347Z,1018.96
2018-09-08T10:25:14.665Z,1018.95
2018-09-08T10:26:24.876Z,1019
2018-09-08T10:27:34.631Z,1018.91
2018-09-08T10:28:44.260Z,1018.9
2018-09-08T10:29:54.484Z,1018.95
2018-09-08T10:31:05.278Z,1018.96
2018-09-08T10:32:15.975Z,1018.94
2018-09-08T10:33:26.810Z,1018.98
2018-09-08T10:34:36.742Z,1019.11
2018-09-08T10:35:46.750Z,1019.02
2018-09-08T10:36:56.141Z,1019
2018-09-08T10:38:06.260Z,1019.06
2018-09-08T10:39:16.377Z,1019
2018-09-08T10:40:26.553Z,1019.05
2018-09-08T10:41:36.480Z,1019.11
2018-09-08T10:42:46.055Z,1019.11
2018-09-08T10:43:56.380Z,1019.09
2018-09-08T10:45:05.980Z,1019.04
2018-09-08T10:46:15.820Z,1019.08
2018-09-08T10:47:25.662Z,1019.03
2018-09-08T10:48:35.239Z,1019.04
2018-09-08T10:49:45.079Z,1019.02
2018-09-08T10:50:54.752Z,1018.99
2018-09-08T10:52:04.583Z,1019.03
2018-09-08T10:53:14.160Z,1019.05
2018-09-08T10:54:24.006Z,1019.03
2018-09-08T10:55:33.863Z,1019.07
2018-09-08T10:56:43.711Z,1019.02
2018-09-08T10:57:53.560Z,1019.09
2018-09-08T10:59:03.145Z,1019.05
2018-09-08T11:00:12.692Z,1019.09
2018-09-08T11:01:22.337Z,1019.16
2018-09-08T11:02:33.371Z,1019.05
2018-09-08T11:03:45.387Z,1019.07
2018-09-08T11:04:55.236Z,1019.2
2018-09-08T11:06:04.543Z,1019.12
2018-09-08T11:07:13.303Z,1019.12
2018-09-08T11:08:23.426Z,1019.17
2018-09-08T11:09:33.587Z,1019.2
2018-09-08T11:10:43.707Z,1019.13
2018-09-08T11:11:53.585Z,1019.13
2018-09-08T11:13:03.431Z,1019.16
2018-09-08T11:14:13.330Z,1019.15
2018-09-08T11:15:22.638Z,1019.12
2018-09-08T11:16:32.964Z,1019.14
2018-09-08T11:17:42.813Z,1019.16
2018-09-08T11:18:52.166Z,1019.19
2018-09-08T11:20:02.685Z,1019.22
2018-09-08T11:21:12.269Z,1019.17
2018-09-08T11:22:22.114Z,1019.14
2018-09-08T11:23:31.966Z,1019.18
2018-09-08T11:24:41.813Z,1019.14
2018-09-08T11:25:51.664Z,1019.19
2018-09-08T11:27:01.240Z,1019.2
2018-09-08T11:28:11.366Z,1019.21
2018-09-08T11:29:20.937Z,1019.21
2018-09-08T11:30:30.814Z,1019.25
2018-09-08T11:31:40.594Z,1019.3
2018-09-08T11:32:50.442Z,1019.27
2018-09-08T11:34:00.561Z,1019.19
2018-09-08T11:35:09.866Z,1019.21
2018-09-08T11:36:19.460Z,1019.26
2018-09-08T11:37:29.313Z,1019.26
2018-09-08T11:38:39.167Z,1019.28
2018-09-08T11:39:49.285Z,1019.27
2018-09-08T11:40:58.593Z,1019.27
2018-09-08T11:42:08.444Z,1019.25
2018-09-08T11:43:18.615Z,1019.24
2018-09-08T11:44:28.743Z,1019.21
2018-09-08T11:45:38.902Z,1019.27
2018-09-08T11:46:48.747Z,1019.33
2018-09-08T11:47:58.607Z,1019.41
2018-09-08T11:49:08.504Z,1019.37
2018-09-08T11:50:18.353Z,1019.38
2018-09-08T11:51:28.224Z,1019.37
2018-09-08T11:52:38.067Z,1019.33
2018-09-08T11:53:47.674Z,1019.39
2018-09-08T11:54:57.254Z,1019.4
2018-09-08T11:56:07.102Z,1019.43
2018-09-08T11:57:17.218Z,1019.38
2018-09-08T11:58:26.794Z,1019.48
2018-09-08T11:59:35.603Z,1019.4
2018-09-08T12:00:46.077Z,1019.43
2018-09-08T12:01:55.656Z,1019.45
2018-09-08T12:03:05.661Z,1019.75
2018-09-08T12:04:15.716Z,1019.44
2018-09-08T12:05:25.573Z,1019.42
2018-09-08T12:06:35.693Z,1019.47
2018-09-08T12:07:45.547Z,1019.44
2018-09-08T12:08:55.117Z,1019.45
2018-09-08T12:10:04.954Z,1019.4
2018-09-08T12:11:14.798Z,1019.42
2018-09-08T12:12:24.377Z,1019.43
2018-09-08T12:13:33.956Z,1019.43
2018-09-08T12:14:43.539Z,1019.41
2018-09-08T12:15:53.123Z,1019.41
2018-09-08T12:17:02.974Z,1019.43
2018-09-08T12:18:12.551Z,1019.39
2018-09-08T12:19:22.665Z,1019.38
2018-09-08T12:20:32.261Z,1019.44
2018-09-08T12:21:41.839Z,1019.45
2018-09-08T12:22:51.685Z,1019.44
2018-09-08T12:24:00.769Z,1019.46
2018-09-08T12:25:10.348Z,1019.48
2018-09-08T12:26:20.192Z,1019.46
2018-09-08T12:27:30.044Z,1019.46
2018-09-08T12:28:39.616Z,1019.52
2018-09-08T12:29:49.463Z,1019.54
2018-09-08T12:30:58.542Z,1019.51
2018-09-08T12:32:08.698Z,1019.48
2018-09-08T12:33:18.546Z,1019.52
2018-09-08T12:34:27.585Z,1019.45
2018-09-08T12:35:37.407Z,1019.44
2018-09-08T12:36:46.985Z,1019.43
2018-09-08T12:37:56.560Z,1019.44
2018-09-08T12:39:05.327Z,1019.42
2018-09-08T12:40:14.627Z,1019.44
2018-09-08T12:41:24.473Z,1019.32
2018-09-08T12:42:33.776Z,1019.28
2018-09-08T12:43:43.350Z,1019.38
2018-09-08T12:44:52.649Z,1019.37
2018-09-08T12:46:02.780Z,1019.4
2018-09-08T12:47:12.670Z,1019.46
2018-09-08T12:48:22.514Z,1019.37
2018-09-08T12:49:32.089Z,1019.42
2018-09-08T12:50:41.936Z,1019.42
2018-09-08T12:51:52.060Z,1019.42
2018-09-08T12:53:01.641Z,1019.43
2018-09-08T12:54:11.542Z,1019.44
2018-09-08T12:55:21.135Z,1019.44
2018-09-08T12:56:30.994Z,1019.37
2018-09-08T12:57:40.847Z,1019.35
2018-09-08T12:58:50.699Z,1019.34
2018-09-08T13:00:00.069Z,1019.28
2018-09-08T13:01:09.648Z,1019.38
2018-09-08T13:02:19.492Z,1019.41
2018-09-08T13:03:28.831Z,1019.41
2018-09-08T13:04:38.135Z,1019.41
2018-09-08T13:05:48.253Z,1019.37
2018-09-08T13:06:58.396Z,1019.39
2018-09-08T13:08:08.251Z,1019.43
2018-09-08T13:09:18.099Z,1019.37
2018-09-08T13:10:28.216Z,1019.39
2018-09-08T13:11:38.064Z,1019.4
2018-09-08T13:12:48.178Z,1019.39
2018-09-08T13:13:58.299Z,1019.35
2018-09-08T13:15:07.933Z,1019.39
2018-09-08T13:16:17.835Z,1019.33
2018-09-08T13:17:27.957Z,1019.35
2018-09-08T13:18:37.268Z,1019.37
2018-09-08T13:19:47.118Z,1019.33
2018-09-08T13:20:57.235Z,1019.32
2018-09-08T13:22:06.543Z,1019.34
2018-09-08T13:23:15.855Z,1019.33
2018-09-08T13:24:25.710Z,1019.33
2018-09-08T13:25:35.290Z,1019.26
2018-09-08T13:26:45.148Z,1019.32
2018-09-08T13:27:54.774Z,1019.33
2018-09-08T13:29:04.086Z,1019.34
2018-09-08T13:30:14.217Z,1019.27
2018-09-08T13:31:23.826Z,1019.22
2018-09-08T13:32:33.943Z,1019.25
2018-09-08T13:33:43.267Z,1019.24
2018-09-08T13:34:53.779Z,1019.29
2018-09-08T13:36:03.631Z,1019.33
2018-09-08T13:37:13.476Z,1019.3
2018-09-08T13:38:23.320Z,1019.3
2018-09-08T13:39:33.240Z,1019.32
2018-09-08T13:40:43.291Z,1019.34
2018-09-08T13:41:53.139Z,1019.28
2018-09-08T13:43:02.720Z,1019.31
2018-09-08T13:44:12.569Z,1019.28
2018-09-08T13:45:22.409Z,1019.3
2018-09-08T13:46:32.527Z,1019.31
2018-09-08T13:47:42.106Z,1019.24
2018-09-08T13:48:51.959Z,1019.26
2018-09-08T13:50:01.281Z,1019.23
2018-09-08T13:51:10.872Z,1019.21
2018-09-08T13:52:21.199Z,1019.25
2018-09-08T13:53:31.041Z,1019.22
2018-09-08T13:54:40.893Z,1019.18
2018-09-08T13:55:50.748Z,1019.19
2018-09-08T13:57:00.055Z,1019.13
2018-09-08T13:58:10.009Z,1019.16
2018-09-08T13:59:19.855Z,1019.2
2018-09-08T14:00:29.705Z,1019.21
2018-09-08T14:01:39.835Z,1019.23
2018-09-08T14:02:49.677Z,1019.16
2018-09-08T14:03:59.846Z,1019.25
2018-09-08T14:05:09.596Z,1019.15
2018-09-08T14:06:19.451Z,1019.22
2018-09-08T14:07:29.026Z,1019.23